Jauja, Peru
Current Conditions -  °F | °C
As of 3:00 PM on Saturday 20 Dec 2014 (Local Time) from SPIM Reporting Station
Few Clouds Few Clouds  
Wind Chill: 75°   Ceiling: Unl
Heat Index: 75°   Visibility: 6mi
Dew Point: 63°   Wind: 13mph
Humidity: 65%   Direction: 200°SSW
Pressure: 29.88"   Gusts: NA
Location:  11.8°S, 75.5°W
Report Text: SPIM 202000Z 20011KT 9999 FEW030 24/17 Q1012 NOSIG RMK PP000
Loading
Personal Weather Stations






























Interactive Weather Map New forecast layout! Learn more

10-Day Weather Forecast

Advertisements
Track Severe Weather on mobile